Home > Products > Valid Products > TAF

000
FTUS43 KDLH 222300 RRA
TAFDLH
TAF
KDLH 222344Z 2300/2324 18004KT 4SM BR OVC008
      TEMPO 2300/2303 2SM BR OVC005
     FM230300 14005KT 2SM BR OVC005
     FM230600 12006KT 1 1/2SM -DZ BR OVC003
     FM231400 VRB05KT 3SM -RA BR OVC007
     FM232000 22005KT 5SM BR BKN017=



000
FTUS43 KDLH 222300 RRA
TAFINL
TAF
KINL 222344Z 2300/2324 12004KT P6SM SCT010
     FM230600 16006KT 4SM BR OVC008
      TEMPO 2308/2312 2SM -FZDZ OVC005
     FM231600 22007KT 5SM BR BKN017=



000
FTUS43 KDLH 222300 RRA
TAFBRD
TAF
KBRD 222344Z 2300/2324 17010KT 3SM BR OVC008
      TEMPO 2300/2303 3/4SM BR OVC003
     FM230300 18008KT 3/4SM -DZ BR OVC002
     FM231600 22006KT 5SM BR BKN017=



000
FTUS43 KDLH 222300 RRA
TAFHYR
TAF
KHYR 222344Z 2300/2324 18004KT 4SM BR OVC008
      TEMPO 2300/2304 2SM BR OVC004
     FM230400 17007KT 1SM -DZ BR OVC003
     FM231400 20005KT 3SM -DZ BR OVC006
     FM232200 23005KT 5SM BR BKN017=



000
FTUS43 KDLH 222300 AAB
TAFBRD
TAF AMD
KBRD 222313Z 2223/2318 17010KT 3SM BR OVC008
      TEMPO 2300/2303 3/4SM BR OVC003
     FM230300 18008KT 3/4SM -DZ BR OVC002
     FM231600 22006KT 5SM BR BKN017=



000
FTUS43 KDLH 222200 AAB
TAFDLH
TAF AMD
KDLH 222259Z 2223/2318 18004KT 5SM BR BKN010
      TEMPO 2223/2303 2SM BR OVC008
     FM230300 14005KT 2SM BR OVC006
     FM230600 12006KT 1 1/2SM -DZ BR OVC005
     FM231400 VRB05KT 3SM -RA BR OVC007=



000
FTUS43 KDLH 222100 AAA
TAFHYR
TAF AMD
KHYR 222156Z 2222/2318 19008KT 5SM BR OVC009
     FM230700 16008KT 2SM -DZ BR OVC004 WS020/21040KT
     FM231200 19005KT 4SM -RA BR OVC004=



000
FTUS43 KDLH 222100 AAA
TAFHYR
TAF AMD
KHYR 222156Z 2222/2318 19008KT 5SM BR OVC009
     FM230700 16008KT 2SM -DZ BR OVC004 WS020/21040KT
     FM231200 19005KT 4SM -RA BR OVC004=



000
FTUS43 KDLH 222100 AAA
TAFDLH
TAF AMD
KDLH 222155Z 2222/2318 21006KT 3SM BR SCT009
     FM230000 20008KT 5SM BR OVC010
     FM230200 17008KT 4SM BR OVC007
     FM230600 14008KT 2SM -DZ BR OVC007
     FM231200 20005KT 4SM -RA BR OVC007=



000
FTUS43 KDLH 222100 AAA
TAFDLH
TAF AMD
KDLH 222155Z 2222/2318 21006KT 3SM BR SCT009
     FM230000 20008KT 5SM BR OVC010
     FM230200 17008KT 4SM BR OVC007
     FM230600 14008KT 2SM -DZ BR OVC007
     FM231200 20005KT 4SM -RA BR OVC007=



000
FTUS43 KDLH 222100 AAA
TAFBRD
TAF AMD
KBRD 222153Z 2222/2318 17008KT 5SM BR SKC
     FM230000 17008KT 4SM BR OVC012
     FM230200 15008KT 4SM -DZ BR OVC007
     FM231200 20006KT 4SM -DZ BR OVC007=



000
FTUS43 KDLH 222100 AAB
TAFINL
TAF AMD
KINL 222153Z 2222/2318 12004KT P6SM OVC010
     FM222300 12004KT P6SM SCT009
     FM230300 14005KT 6SM BR OVC015
     FM230700 14005KT 4SM -FZDZ BR OVC007
     FM231600 18005KT 4SM -FZDZ BR OVC007=



000
FTUS43 KDLH 222100 AAA
TAFBRD
TAF AMD
KBRD 222153Z 2222/2318 17008KT 5SM BR SKC
     FM230000 17008KT 4SM BR OVC012
     FM230200 15008KT 4SM -DZ BR OVC007
     FM231200 20006KT 4SM -DZ BR OVC007=



000
FTUS43 KDLH 222100 AAB
TAFINL
TAF AMD
KINL 222153Z 2222/2318 12004KT P6SM OVC010
     FM222300 12004KT P6SM SCT009
     FM230300 14005KT 6SM BR OVC015
     FM230700 14005KT 4SM -FZDZ BR OVC007
     FM231600 18005KT 4SM -FZDZ BR OVC007=



000
FTUS43 KDLH 222100 AAA
TAFINL
TAF AMD
KINL 222152Z 2222/2318 12004KT P6SM OVC009
     FM222300 12004KT P6SM SCT009
     FM230300 14005KT 6SM BR OVC015
     FM230700 14005KT 4SM -FZDZ BR OVC007
     FM231600 18005KT 4SM -FZDZ BR OVC007=



000
FTUS43 KDLH 222100 AAA
TAFINL
TAF AMD
KINL 222152Z 2222/2318 12004KT P6SM OVC009
     FM222300 12004KT P6SM SCT009
     FM230300 14005KT 6SM BR OVC015
     FM230700 14005KT 4SM -FZDZ BR OVC007
     FM231600 18005KT 4SM -FZDZ BR OVC007=



000
FTUS43 KDLH 221700
TAFBRD
TAF
KBRD 221726Z 2218/2318 18007KT P6SM SKC
     FM222200 17008KT 5SM BR OVC015
     FM230100 15008KT 4SM -DZ BR OVC007
     FM231200 20006KT 4SM -DZ BR OVC007=



000
FTUS43 KDLH 221700
TAFINL
TAF
KINL 221726Z 2218/2318 25005KT P6SM OVC012
     FM222000 20005KT P6SM OVC015
     FM230000 14005KT 6SM BR OVC015
     FM230700 14005KT 4SM -FZDZ BR OVC007
     FM231600 18005KT 4SM -FZDZ BR OVC007=



000
FTUS43 KDLH 221700
TAFHYR
TAF
KHYR 221726Z 2218/2318 20010KT 4SM BR OVC008
     FM230000 18007KT 5SM BR OVC008
     FM230700 16008KT 2SM -DZ BR OVC004 WS020/21040KT
     FM231200 19005KT 4SM -RA BR OVC004=



000
FTUS43 KDLH 221700
TAFDLH
TAF
KDLH 221726Z 2218/2318 22006KT 2SM BR OVC006
     FM222200 20008KT 6SM BR OVC012
     FM230200 17008KT 4SM BR OVC007
     FM230600 14008KT 2SM -DZ BR OVC007
     FM231200 20005KT 4SM -RA BR OVC007=



000
FTUS43 KDLH 221600 AAB
TAFHYR
TAF AMD
KHYR 221641Z 2217/2312 21009KT 4SM BR OVC008
     FM230000 18007KT 5SM BR OVC008
     FM230700 16008KT 2SM -DZ BR OVC004 WS020/21040KT=



000
FTUS43 KDLH 221600 AAB
TAFBRD
TAF AMD
KBRD 221623Z 2216/2312 20006KT 4SM BR SKC
      TEMPO 2216/2218 6SM BR
     FM221800 19007KT P6SM SKC
     FM222200 17008KT 5SM BR OVC015
     FM230100 15008KT 4SM -DZ BR OVC007=



000
FTUS43 KDLH 221600 AAB
TAFDLH
TAF AMD
KDLH 221617Z 2216/2312 24008KT 2SM BR OVC006
      TEMPO 2216/2218 4SM BR
     FM221800 23008KT 4SM BR OVC007
     FM222200 20008KT 6SM BR OVC012
     FM230200 17008KT 4SM BR OVC007
     FM230600 14008KT 2SM -DZ BR OVC007=



000
FTUS43 KDLH 221300 AAA
TAFBRD
TAF AMD
KBRD 221348Z 2214/2312 20007KT 5SM BR FEW200
      TEMPO 2214/2216 2SM BR
     FM221600 19006KT P6SM SKC
     FM230200 18004KT 4SM BR BKN015=



000
FTUS43 KDLH 221300 AAA
TAFDLH
TAF AMD
KDLH 221348Z 2214/2312 23011KT 5SM BR BKN006 WS020/24040KT
      TEMPO 2214/2216 1 1/2SM BR OVC005
     FM221600 25015KT P6SM SCT120
     FM230300 20007KT 4SM -DZ BR OVC020=



000
FTUS43 KDLH 221300 AAA
TAFHYR
TAF AMD
KHYR 221347Z 2214/2312 20013KT 3SM BR OVC008
     FM221600 20007KT 5SM BR SCT010=



000
FTUS43 KDLH 221200 AAA
TAFDLH
TAF AMD
KDLH 221239Z 2213/2312 23015KT 5SM BR FEW005 WS020/24040KT
      TEMPO 2213/2216 4SM BR BKN005
     FM221600 25015KT P6SM SCT120
     FM230300 20007KT 4SM -DZ BR OVC020=



000
FTUS43 KDLH 221100
TAFINL
TAF
KINL 221133Z 2212/2312 24006KT P6SM OVC027
     FM221500 19005KT P6SM VCSH OVC018=



000
FTUS43 KDLH 221100
TAFDLH
TAF
KDLH 221133Z 2212/2312 23015KT 5SM BR FEW005 WS020/24040KT
      TEMPO 2212/2216 BKN005
     FM221600 25015KT P6SM SCT120
     FM230300 20007KT 4SM -DZ BR OVC020=



000
FTUS43 KDLH 221100
TAFBRD
TAF
KBRD 221133Z 2212/2312 20007KT 5SM BR SKC
     FM221600 19006KT P6SM SKC
     FM230200 18004KT 4SM BR BKN015=



000
FTUS43 KDLH 221100
TAFHYR
TAF
KHYR 221133Z 2212/2312 20013KT 5SM BR OVC010
     FM221600 20007KT 5SM BR SCT010=



000
FTUS43 KDLH 220500
TAFINL
TAF
KINL 220530Z 2206/2306 22010G18KT P6SM SCT050 BKN120
      TEMPO 2208/2212 24008KT BKN022 OVC050
     FM221200 23007KT 6SM -SNDZ BKN018 OVC040
     FM221800 19005KT 6SM -SNDZ OVC018=



000
FTUS43 KDLH 220500
TAFDLH
TAF
KDLH 220530Z 2206/2306 22015G25KT P6SM OVC120 WS020/24040KT
     FM220800 23014KT P6SM SCT020 OVC100
      TEMPO 2208/2212 BKN018
     FM221200 22010KT 6SM -DZ BR OVC018
     FM222000 20007KT 6SM -DZ BR OVC020=



000
FTUS43 KDLH 220500
TAFHYR
TAF
KHYR 220530Z 2206/2306 21014KT P6SM SCT015 OVC100 WS020/26040KT
      TEMPO 2206/2210 BKN018
     FM221000 22012KT 6SM -FZDZ OVC014
     FM221800 20007KT 5SM -DZ OVC010=



000
FTUS43 KDLH 220500
TAFBRD
TAF
KBRD 220530Z 2206/2306 20014KT P6SM OVC120 WS020/24040KT
     FM221000 22008KT P6SM SCT015 OVC100
     FM221600 19006KT P6SM SCT020 OVC100=



000
FTUS43 KDLH 220500 AAB
TAFDLH
TAF AMD
KDLH 220510Z 2205/2224 22015G25KT P6SM OVC120 WS020/24040KT
     FM220800 23014KT P6SM SCT020 OVC100
      TEMPO 2208/2212 BKN018
     FM221200 22010KT 6SM -DZ BR OVC018
     FM222000 20007KT 6SM -DZ BR OVC015=



000
FTUS43 KDLH 220400 AAB
TAFBRD
TAF AMD
KBRD 220406Z 2204/2224 20014KT P6SM OVC120 WS020/24040KT
     FM221000 22008KT P6SM SCT025 OVC100
     FM221600 19006KT P6SM SCT020 OVC100=



000
FTUS43 KDLH 220400 AAB
TAFBRD
TAF AMD
KBRD 220406Z 2204/2224 20014KT P6SM OVC120 WS020/24040KT
     FM221000 22008KT P6SM SCT025 OVC100
     FM221600 19006KT P6SM SCT020 OVC100=



000
FTUS43 KDLH 220400 AAA
TAFDLH
TAF AMD
KDLH 220401Z 2204/2224 22015G25KT P6SM OVC120 WS020/24040KT
     FM220800 23014KT P6SM SCT020 OVC100 WS020/26035KT
     FM221200 22010KT 6SM -DZ BR OVC018
     FM222000 20007KT 6SM -DZ BR OVC010=



000
FTUS43 KDLH 220400 AAA
TAFDLH
TAF AMD
KDLH 220401Z 2204/2224 22015G25KT P6SM OVC120 WS020/24040KT
     FM220800 23014KT P6SM SCT020 OVC100 WS020/26035KT
     FM221200 22010KT 6SM -DZ BR OVC018
     FM222000 20007KT 6SM -DZ BR OVC010=



000
FTUS43 KDLH 220300 AAB
TAFINL
TAF AMD
KINL 220358Z 2204/2224 22008KT P6SM OVC100 WS020/24040KT
     FM220600 25008KT P6SM SCT020 BKN050
      TEMPO 2206/2210 -SNDZ BKN018 OVC040
     FM221000 24008KT 6SM -SNDZ OVC018
     FM221800 19005KT 6SM -SNDZ OVC012=



000
FTUS43 KDLH 220300 AAB
TAFINL
TAF AMD
KINL 220358Z 2204/2224 22008KT P6SM OVC100 WS020/24040KT
     FM220600 25008KT P6SM SCT020 BKN050
      TEMPO 2206/2210 -SNDZ BKN018 OVC040
     FM221000 24008KT 6SM -SNDZ OVC018
     FM221800 19005KT 6SM -SNDZ OVC012=



000
FTUS43 KDLH 220000 AAA
TAFBRD
TAF AMD
KBRD 220037Z 2201/2224 19010KT P6SM OVC120 WS020/24040KT
      TEMPO 2201/2205 20012G20KT
     FM221000 22008KT P6SM BKN025 OVC100
     FM221800 18005KT P6SM SCT020 OVC100=



000
FTUS43 KDLH 220000 AAA
TAFHYR
TAF AMD
KHYR 220037Z 2201/2224 20012G22KT P6SM OVC120 WS020/23045KT
     FM220600 21014KT P6SM BKN018 OVC100 WS020/26040KT
     FM221000 22010KT 6SM -DZ OVC015
     FM221800 20005KT 4SM -DZ BR OVC007=



000
FTUS43 KDLH 220000 AAA
TAFINL
TAF AMD
KINL 220036Z 2201/2224 21012KT P6SM OVC100 WS020/24040KT
      TEMPO 2201/2204 21012G20KT
     FM220600 23010KT P6SM BKN018 OVC100
     FM221000 24008KT 6SM -DZ BR OVC012
     FM221800 19005KT 4SM -DZ BR OVC007=



000
FTUS43 KDLH 220000 AAB
TAFDLH
TAF AMD
KDLH 220035Z 2201/2224 22012KT P6SM OVC120 WS020/24040KT
      TEMPO 2201/2204 22014G25KT
     FM221000 23014KT P6SM BKN018 OVC100 WS020/26040KT
     FM221400 23010KT 6SM -DZ BR OVC015
     FM222200 20007KT 4SM -DZ BR OVC008=



000
FTUS43 KDLH 212300 AAA
TAFDLH
TAF AMD
KDLH 212322Z 2123/2218 21016KT P6SM OVC120 WS020/24040KT
      TEMPO 2123/2203 22018G30KT
     FM221000 23014KT P6SM BKN018 OVC100 WS020/26040KT
     FM221400 23010KT 6SM -DZ BR OVC015=



000
FTUS43 KDLH 211700
TAFDLH
TAF
KDLH 211732Z 2118/2218 21015G25KT P6SM SCT025 BKN100
     FM220000 22012G22KT P6SM OVC011
     FM220300 23010KT 4SM -FZDZ BR OVC004 WS020/24040KT
     FM221500 24011KT 3SM -FZDZ BR OVC004=



000
FTUS43 KDLH 211700
TAFBRD
TAF
KBRD 211732Z 2118/2218 19014G22KT P6SM SCT100
     FM212300 20012G22KT P6SM BKN035
     FM220100 21010KT P6SM BKN025 WS020/24040KT
     FM221500 23005KT P6SM BKN015=



000
FTUS43 KDLH 211700
TAFHYR
TAF
KHYR 211732Z 2118/2218 19012G22KT P6SM SCT025 BKN120
     FM220600 20008KT P6SM -FZDZ OVC003 WS020/22045KT
     FM221500 20005KT 6SM -FZDZ BR OVC004=



000
FTUS43 KDLH 211700
TAFINL
TAF
KINL 211732Z 2118/2218 20013G25KT P6SM SCT020 BKN080
     FM220100 22011KT P6SM BKN025 WS020/23040KT
     FM220700 22008KT 4SM -FZDZ BR OVC003 WS020/23040KT
     FM221500 24005KT 4SM -SHSN BR OVC005=



000
FTUS43 KDLH 211500 AAA
TAFBRD
TAF AMD
KBRD 211517Z 2115/2212 19011G15KT P6SM SCT100 BKN220
     FM211700 19012G20KT P6SM BKN110
     FM212300 20012G22KT P6SM BKN035
     FM220100 21010KT P6SM BKN025 WS020/24040KT=



000
FTUS43 KDLH 211500 AAB
TAFINL
TAF AMD
KINL 211515Z 2115/2212 19008G14KT P6SM OVC090
     FM211700 20013G25KT P6SM SCT020 BKN080
     FM220100 22011KT P6SM BKN025 WS020/23040KT
     FM220700 22008KT 4SM -FZDZ BR OVC003 WS020/23040KT=



000
FTUS43 KDLH 211500 AAA
TAFDLH
TAF AMD
KDLH 211512Z 2115/2212 20013G22KT P6SM BKN110
     FM211700 21017G27KT P6SM SCT025 BKN100
     FM220000 22012G22KT P6SM OVC011
     FM220700 23010KT 3SM -FZDZ BR OVC004 WS020/24040KT=



000
FTUS43 KDLH 211300 AAA
TAFINL
TAF AMD
KINL 211303Z 2113/2212 18009G16KT P6SM OVC090
     FM211500 20012G25KT P6SM SCT020 BKN080
     FM220300 22010KT P6SM BKN025 WS020/23040KT
     FM220800 22008KT 4SM -FZDZ BR OVC003 WS020/23040KT=



000
FTUS43 KDLH 211100
TAFINL
TAF
KINL 211130Z 2112/2212 18006KT P6SM BKN090
     FM211500 20012G25KT P6SM SCT020 BKN080
     FM220300 22010KT P6SM BKN025 WS020/23040KT
     FM220800 22008KT 4SM -FZDZ BR OVC003 WS020/23040KT=



000
FTUS43 KDLH 211100
TAFHYR
TAF
KHYR 211130Z 2112/2212 00000KT P6SM SKC
     FM211300 18005KT P6SM BKN120
     FM211800 19012G22KT P6SM SCT025 BKN120
     FM220600 20008KT P6SM -FZDZ OVC003 WS020/22045KT=



000
FTUS43 KDLH 211100
TAFBRD
TAF
KBRD 211130Z 2112/2212 18010KT P6SM FEW110
     FM211500 19012G22KT P6SM BKN110
     FM212300 20012G22KT P6SM BKN035
     FM220100 21010KT P6SM BKN025 WS020/24040KT=



000
FTUS43 KDLH 211100
TAFDLH
TAF
KDLH 211130Z 2112/2212 21007KT P6SM SCT120
     FM211300 19010KT P6SM BKN120
     FM211700 21017G27KT P6SM SCT025 BKN100
     FM220000 23012G22KT P6SM OVC011
     FM220700 25010KT P6SM -FZDZ OVC004 WS020/23040KT=



000
FTUS43 KDLH 210500
TAFBRD
TAF
KBRD 210536Z 2106/2206 18006KT P6SM BKN140
     FM211400 19010G20KT P6SM SCT030 BKN120
     FM212100 20012G25KT P6SM BKN030
     FM220000 21010KT P6SM BKN025 WS020/24040KT=



000
FTUS43 KDLH 210500
TAFINL
TAF
KINL 210536Z 2106/2206 18006KT P6SM BKN140
     FM211500 20012G25KT P6SM SCT030 BKN100
     FM220000 21012KT P6SM BKN025 WS020/23040KT=



000
FTUS43 KDLH 210500
TAFDLH
TAF
KDLH 210536Z 2106/2206 VRB03KT P6SM FEW140
     FM211500 18012KT P6SM SCT040 BKN120
     FM211800 19012G25KT P6SM SCT025 BKN100
     FM220000 21012KT P6SM BKN025 WS020/23040KT=



000
FTUS43 KDLH 210500
TAFHYR
TAF
KHYR 210536Z 2106/2206 VRB03KT P6SM SKC
     FM211400 18008KT P6SM BKN140
     FM211800 19012G25KT P6SM SCT030 BKN120
     FM220000 20012KT P6SM BKN025 WS020/22045KT=



000
FTUS43 KDLH 202300
TAFDLH
TAF
KDLH 202336Z 2100/2124 27004KT P6SM SKC
     FM211500 18012KT P6SM SCT040 BKN100
     FM211800 20012G22KT P6SM SCT025 BKN040=



000
FTUS43 KDLH 202300
TAFINL
TAF
KINL 202336Z 2100/2124 VRB04KT P6SM SKC
     FM211000 18008KT P6SM BKN120
     FM211500 19012KT P6SM SCT025 OVC080
     FM211800 20012G22KT P6SM BKN025 OVC060=



000
FTUS43 KDLH 202300
TAFBRD
TAF
KBRD 202336Z 2100/2124 VRB04KT P6SM SKC
     FM211000 17008KT P6SM BKN120
     FM211400 19012KT P6SM SCT025 OVC080
     FM211800 20012G20KT P6SM BKN025 OVC060=



000
FTUS43 KDLH 202300
TAFHYR
TAF
KHYR 202336Z 2100/2124 VRB03KT P6SM SKC
     FM211500 18008G12KT P6SM SCT040 BKN100
     FM212000 19010G22KT P6SM SCT025 OVC080=



000
FTUS43 KDLH 202200 AAA
TAFHYR
TAF AMD
KHYR 202207Z 2022/2118 28006KT P6SM SKC
     FM210000 VRB03KT P6SM SKC
     FM211600 18009KT P6SM SKC=



000
FTUS43 KDLH 201700
TAFDLH
TAF
KDLH 201738Z 2018/2118 31016G21KT P6SM SCT020
      TEMPO 2018/2020 4SM -SN BLSN
     FM202000 30007KT P6SM SKC
     FM210800 25006KT P6SM SCT120
     FM211200 20008KT P6SM SCT120=



000
FTUS43 KDLH 201700
TAFBRD
TAF
KBRD 201738Z 2018/2118 32014KT P6SM SKC
     FM202300 29004KT P6SM SKC
     FM211100 18007KT P6SM SCT110=



000
FTUS43 KDLH 201700
TAFHYR
TAF
KHYR 201738Z 2018/2118 28006KT P6SM BKN023
     FM210000 VRB03KT P6SM SKC
     FM211600 18009KT P6SM SKC=



000
FTUS43 KDLH 201700
TAFINL
TAF
KINL 201738Z 2018/2118 29008KT P6SM SKC
     FM202300 VRB04KT P6SM SKC
     FM211700 18010KT P6SM SCT120=



000
FTUS43 KDLH 201100
TAFBRD
TAF
KBRD 201138Z 2012/2112 30011KT P6SM SKC
     FM202300 VRB04KT P6SM SKC
     FM210900 18005KT P6SM SCT110=



000
FTUS43 KDLH 201100
TAFHYR
TAF
KHYR 201138Z 2012/2112 27004KT P6SM FEW016 SCT027
     FM201400 30009KT P6SM SKC
     FM201800 VRB04KT P6SM SKC=



000
FTUS43 KDLH 201100
TAFINL
TAF
KINL 201138Z 2012/2112 29011KT P6SM FEW026 BKN035
     FM202300 VRB04KT P6SM SKC
     FM210700 18005KT P6SM SCT120=



000
FTUS43 KDLH 201100
TAFDLH
TAF
KDLH 201138Z 2012/2112 29011KT P6SM FEW020
     FM201500 30012G19KT P6SM SKC
     FM202300 30007KT P6SM SKC
     FM210800 25006KT P6SM SCT120=



000
FTUS43 KDLH 200900 AAC
TAFINL
TAF AMD
KINL 200924Z 2009/2106 28011KT P6SM OVC045
     FM201200 30010KT P6SM BKN035
     FM202200 28007KT P6SM SCT035
     FM210200 VRB03KT P6SM FEW035=



000
FTUS43 KDLH 200900 AAA
TAFDLH
TAF AMD
KDLH 200924Z 2009/2106 30008KT P6SM -SN SCT021
     FM201700 30011KT P6SM SCT035
     FM202300 29009KT P6SM SCT035=



000
FTUS43 KDLH 200800 AAB
TAFHYR
TAF AMD
KHYR 200802Z 2008/2106 29005KT P6SM VCSH FEW025 BKN035
     FM202200 27004KT P6SM SCT040=



000
FTUS43 KDLH 200700 AAA
TAFHYR
TAF AMD
KHYR 200714Z 2007/2106 29005KT P6SM SCT020 BKN045
      TEMPO 2007/2010 5SM -SHSN BKN017
     FM202200 27004KT P6SM SCT040=



000
FTUS43 KDLH 200700 AAA
TAFBRD
TAF AMD
KBRD 200712Z 2007/2106 32012KT P6SM SKC
     FM200900 30010KT P6SM SCT030
     FM202300 25004KT P6SM SCT025=



000
FTUS43 KDLH 200700 AAB
TAFINL
TAF AMD
KINL 200711Z 2007/2106 28008KT 6SM -SN BKN035 OVC070
      TEMPO 2007/2010 3SM -SN BKN019
     FM201200 30010KT P6SM BKN035
     FM202200 28007KT P6SM SCT035
     FM210200 VRB03KT P6SM FEW035=



000
FTUS43 KDLH 200600 AAA
TAFINL
TAF AMD
KINL 200638Z 2007/2106 28008KT 6SM -SN BKN035 OVC070
      TEMPO 2007/2010 1 1/2SM -SHSN BKN025
     FM201200 30010KT P6SM BKN035
     FM202200 28007KT P6SM SCT035
     FM210200 VRB03KT P6SM FEW035=



000
FTUS43 KDLH 200600 AAA
TAFDLH
TAF AMD
KDLH 200634Z 2007/2106 29010KT P6SM -SN BKN017 BKN029 BKN045
     FM201000 30011KT P6SM SCT045
      TEMPO 2010/2013 BKN045
     FM201700 30011KT P6SM SCT035
     FM202300 29009KT P6SM SCT035=



000
FTUS43 KDLH 200500
TAFDLH
TAF
KDLH 200530Z 2006/2106 31011KT 6SM -SHSN SCT013 BKN035
      TEMPO 2006/2009 32013G22KT 1 1/2SM -SHSN BKN013 OVC040
     FM201000 30011KT P6SM SCT045
      TEMPO 2010/2013 BKN045
     FM201700 30011KT P6SM SCT035
     FM202300 29009KT P6SM SCT035=



000
FTUS43 KDLH 200500
TAFHYR
TAF
KHYR 200530Z 2006/2106 29008KT P6SM SCT020 BKN035
      TEMPO 2006/2010 2SM -SHSN BKN020
     FM202200 27004KT P6SM SCT040=



000
FTUS43 KDLH 200500
TAFINL
TAF
KINL 200530Z 2006/2106 30011G18KT P6SM VCSH SCT025 BKN035
      TEMPO 2007/2010 3SM -SHSN BKN025
     FM201200 30010KT P6SM BKN035
     FM202200 28007KT P6SM SCT035
     FM210200 VRB03KT P6SM FEW035=



000
FTUS43 KDLH 200500
TAFBRD
TAF
KBRD 200530Z 2006/2106 30011G18KT P6SM SCT025
      TEMPO 2006/2008 -SHSN BKN025
     FM200900 30010KT P6SM SCT030
     FM202300 25004KT P6SM SCT025=



000
FTUS43 KDLH 200400 AAB
TAFBRD
TAF AMD
KBRD 200402Z 2004/2024 30011KT P6SM VCSH BKN045
      TEMPO 2004/2006 6SM -SN BKN025
     FM200700 30010KT P6SM SCT040
      TEMPO 2007/2011 BKN040
     FM201800 30009KT P6SM SCT025=



000
FTUS43 KDLH 200400 AAB
TAFBRD
TAF AMD
KBRD 200402Z 2004/2024 30011KT P6SM VCSH BKN045
      TEMPO 2004/2006 6SM -SN BKN025
     FM200700 30010KT P6SM SCT040
      TEMPO 2007/2011 BKN040
     FM201800 30009KT P6SM SCT025=



000
FTUS43 KDLH 200300 AAC
TAFDLH
TAF AMD
KDLH 200310Z 2003/2024 31014G22KT 6SM -SHSN SCT015 BKN035
      TEMPO 2003/2006 1 1/2SM -SN BR BKN015
     FM200700 30011KT P6SM BKN035
     FM201600 30011KT P6SM SCT035
     FM202200 29009KT P6SM SCT035=



    US Dept of Commerce
    National Oceanic and Atmospheric Administration
    National Weather Service
    1325 East West Highway
    Silver Spring, MD 20910
    Page Author: NWS Internet Services Team
Disclaimer
Information Quality
Credits
Glossary
Privacy Policy
Freedom of Information Act (FOIA)
About Us
Career Opportunities